Time;durP1;ratioP1;P1;durP2;ratioP2;P2;SDS_P1;SDS_P2;PMS_P1;PMS_P2;Temp;Humidity;BMP_temperature;BMP_pressure;BME280_temperature;BME280_humidity;BME280_pressure;Samples;Min_cycle;Max_cycle;Signal;HPM_P1;HPM_P2
2022/10/31 00:00:13;;;;;;;24.85;12.98;;;;;;;;;;5111499;28;20056;-73
2022/10/31 00:02:39;;;;;;;29.75;12.95;;;;;;;;;;5110705;28;20062;-73
2022/10/31 00:05:05;;;;;;;24.08;12.98;;;;;;;;;;5108236;28;20445;-73
2022/10/31 00:07:31;;;;;;;23.10;12.65;;;;;;;;;;5111592;28;20048;-73
2022/10/31 00:09:57;;;;;;;22.88;12.75;;;;;;;;;;5110402;28;20047;-73
2022/10/31 00:12:23;;;;;;;26.63;12.88;;;;;;;;;;5111760;28;20043;-73
2022/10/31 00:14:49;;;;;;;24.75;12.80;;;;;;;;;;5093891;28;20108;-73
2022/10/31 00:17:15;;;;;;;22.50;12.70;;;;;;;;;;5113417;28;20382;-73
2022/10/31 00:19:42;;;;;;;27.48;12.75;;;;;;;;;;5110271;28;20485;-73
2022/10/31 00:22:08;;;;;;;25.55;13.02;;;;;;;;;;5112182;28;20040;-73
2022/10/31 00:24:34;;;;;;;20.13;11.73;;;;;;;;;;5111863;28;20401;-73
2022/10/31 00:27:00;;;;;;;23.35;13.45;;;;;;;;;;5108681;28;20042;-73
2022/10/31 00:29:26;;;;;;;25.58;14.35;;;;;;;;;;5098709;28;20074;-73
2022/10/31 00:31:52;;;;;;;21.27;12.80;;;;;;;;;;5101653;28;20050;-73
2022/10/31 00:34:18;;;;;;;27.85;13.38;;;;;;;;;;5110814;28;20040;-73
2022/10/31 00:36:44;;;;;;;25.08;14.85;;;;;;;;;;5110917;28;20044;-73
2022/10/31 00:39:11;;;;;;;24.00;14.65;;;;;;;;;;5111502;28;20067;-73
2022/10/31 00:41:37;;;;;;;31.98;15.85;;;;;;;;;;5110450;28;20390;-73
2022/10/31 00:44:03;;;;;;;27.15;15.38;;;;;;;;;;5110113;28;20051;-73
2022/10/31 00:46:29;;;;;;;22.63;14.55;;;;;;;;;;5093825;28;20051;-73
2022/10/31 00:48:55;;;;;;;25.67;16.13;;;;;;;;;;5101426;28;20088;-73
2022/10/31 00:51:21;;;;;;;25.17;16.52;;;;;;;;;;5115827;28;20047;-74
2022/10/31 00:53:47;;;;;;;27.25;16.83;;;;;;;;;;5112753;28;20044;-74
2022/10/31 00:56:13;;;;;;;29.35;16.40;;;;;;;;;;5111125;28;20040;-71
2022/10/31 00:58:39;;;;;;;27.30;16.38;;;;;;;;;;5113403;28;20089;-73
2022/10/31 01:01:05;;;;;;;25.15;16.55;;;;;;;;;;5114152;28;20047;-72
2022/10/31 01:03:32;;;;;;;29.05;16.33;;;;;;;;;;5094918;28;20046;-73
2022/10/31 01:06:04;;;;;;;26.00;15.32;;;;;;;;;;5111452;28;20036;-72
2022/10/31 01:08:31;;;;;;;29.30;17.63;;;;;;;;;;5107598;28;20044;-73
2022/10/31 01:11:01;;;;;;;28.50;17.65;;;;;;;;;;5107779;28;20485;-74
2022/10/31 01:13:27;;;;;;;30.05;17.85;;;;;;;;;;5106640;28;20040;-73
2022/10/31 01:15:57;;;;;;;30.40;17.38;;;;;;;;;;5107954;28;20036;-73
2022/10/31 01:18:23;;;;;;;29.92;18.30;;;;;;;;;;5109996;28;20044;-73
2022/10/31 01:21:09;;;;;;;32.25;19.02;;;;;;;;;;5090026;28;20054;-73
2022/10/31 01:23:35;;;;;;;31.58;18.45;;;;;;;;;;5092433;28;20051;-73
2022/10/31 01:26:11;;;;;;;29.15;17.38;;;;;;;;;;5106418;28;20043;-73
2022/10/31 01:28:38;;;;;;;28.73;17.88;;;;;;;;;;5107063;28;20047;-74
2022/10/31 01:31:05;;;;;;;32.25;18.77;;;;;;;;;;5106500;28;20040;-72
2022/10/31 01:33:31;;;;;;;25.25;17.45;;;;;;;;;;5107111;28;20398;-72
2022/10/31 01:35:58;;;;;;;26.48;17.60;;;;;;;;;;5106717;28;20047;-72
2022/10/31 01:38:24;;;;;;;26.60;17.35;;;;;;;;;;5110156;28;20118;-72
2022/10/31 01:40:50;;;;;;;26.83;16.60;;;;;;;;;;5107414;28;20088;-72
2022/10/31 01:43:16;;;;;;;27.25;17.25;;;;;;;;;;5107537;28;20044;-73
2022/10/31 01:45:43;;;;;;;25.35;15.70;;;;;;;;;;5107311;28;20043;-73
2022/10/31 01:48:14;;;;;;;25.55;16.40;;;;;;;;;;5091984;28;20090;-73
2022/10/31 01:50:40;;;;;;;28.37;15.40;;;;;;;;;;5107057;28;20039;-73
2022/10/31 01:53:07;;;;;;;29.35;17.65;;;;;;;;;;5108442;28;20046;-72
2022/10/31 01:55:34;;;;;;;24.23;15.60;;;;;;;;;;5112682;28;20071;-73
2022/10/31 01:58:05;;;;;;;27.38;16.13;;;;;;;;;;5116007;28;20046;-73
2022/10/31 02:00:31;;;;;;;26.08;15.63;;;;;;;;;;5103546;28;20413;-73
2022/10/31 02:02:59;;;;;;;24.38;15.88;;;;;;;;;;5103851;28;20043;-73
2022/10/31 02:05:26;;;;;;;26.98;15.38;;;;;;;;;;5093952;28;20134;-73
2022/10/31 02:08:07;;;;;;;28.08;16.88;;;;;;;;;;5109393;28;20040;-73
2022/10/31 02:10:33;;;;;;;;;;;;;;;;;;5109294;28;20523;-73
2022/10/31 02:13:01;;;;;;;28.65;17.55;;;;;;;;;;5105574;28;20010;-73
2022/10/31 02:15:29;;;;;;;23.80;15.18;;;;;;;;;;5114201;28;20453;-73
2022/10/31 02:17:54;;;;;;;23.25;15.63;;;;;;;;;;5114422;28;20040;-73
2022/10/31 02:20:22;;;;;;;27.75;17.63;;;;;;;;;;5112150;28;20385;-73
2022/10/31 02:22:48;;;;;;;26.38;17.52;;;;;;;;;;5113873;28;20035;-73
2022/10/31 02:25:16;;;;;;;26.58;16.38;;;;;;;;;;5107243;28;20095;-73
2022/10/31 02:27:45;;;;;;;26.63;16.88;;;;;;;;;;5088555;28;20043;-73
2022/10/31 02:30:15;;;;;;;26.90;16.52;;;;;;;;;;5113376;28;20067;-73
2022/10/31 02:32:53;;;;;;;26.33;17.42;;;;;;;;;;5112568;28;20044;-73
2022/10/31 02:35:25;;;;;;;27.70;16.67;;;;;;;;;;5094489;28;20052;-73
2022/10/31 02:37:51;;;;;;;22.52;16.38;;;;;;;;;;5110730;28;20044;-73
2022/10/31 02:40:29;;;;;;;26.05;16.35;;;;;;;;;;5112283;28;20062;-73
2022/10/31 02:42:55;;;;;;;25.27;16.95;;;;;;;;;;5113992;28;20039;-73
2022/10/31 02:45:45;;;;;;;26.13;17.52;;;;;;;;;;5100363;28;20116;-73
2022/10/31 02:48:17;;;;;;;28.00;18.08;;;;;;;;;;5106664;28;20109;-73
2022/10/31 02:50:45;;;;;;;27.38;16.55;;;;;;;;;;5101142;28;20148;-73
2022/10/31 02:53:14;;;;;;;22.15;15.98;;;;;;;;;;5112035;28;20047;-73
2022/10/31 02:55:50;;;;;;;24.08;16.52;;;;;;;;;;5108022;28;20040;-73
2022/10/31 02:58:20;;;;;;;23.30;16.02;;;;;;;;;;5109312;28;20047;-73
2022/10/31 03:01:10;;;;;;;24.52;16.45;;;;;;;;;;5111667;28;20048;-73
2022/10/31 03:03:49;;;;;;;22.55;15.88;;;;;;;;;;5112412;28;20052;-73
2022/10/31 03:06:24;;;;;;;22.77;15.20;;;;;;;;;;5110217;28;20489;-73
2022/10/31 03:09:00;;;;;;;27.00;16.55;;;;;;;;;;5111580;28;20552;-73
2022/10/31 03:11:30;;;;;;;23.33;15.55;;;;;;;;;;5111245;28;20043;-73
2022/10/31 03:14:00;;;;;;;22.45;15.10;;;;;;;;;;5113111;28;20397;-73
2022/10/31 03:16:37;;;;;;;25.67;16.48;;;;;;;;;;5099997;28;20039;-73
2022/10/31 03:19:11;;;;;;;24.58;15.85;;;;;;;;;;5111799;28;20519;-73
2022/10/31 03:21:43;;;;;;;21.67;15.43;;;;;;;;;;5113321;28;20075;-72
2022/10/31 03:24:10;;;;;;;23.90;15.70;;;;;;;;;;5110920;28;20160;-73
2022/10/31 03:26:38;;;;;;;22.40;15.75;;;;;;;;;;5111338;28;20040;-73
2022/10/31 03:29:08;;;;;;;23.67;16.48;;;;;;;;;;5112180;28;20050;-73
2022/10/31 03:31:39;;;;;;;28.42;17.88;;;;;;;;;;5112568;28;20043;-72
2022/10/31 03:34:06;;;;;;;24.40;17.75;;;;;;;;;;5110171;28;20093;-72
2022/10/31 03:36:34;;;;;;;25.25;18.10;;;;;;;;;;5112268;28;20057;-72
2022/10/31 03:39:02;;;;;;;25.30;17.70;;;;;;;;;;5112393;28;20035;-73
2022/10/31 03:41:29;;;;;;;29.35;19.35;;;;;;;;;;5110639;28;20089;-73
2022/10/31 03:43:58;;;;;;;30.27;18.80;;;;;;;;;;5111126;28;20043;-73
2022/10/31 03:46:24;;;;;;;24.75;18.98;;;;;;;;;;5093299;28;20392;-73
2022/10/31 03:48:50;;;;;;;28.85;18.85;;;;;;;;;;5112274;28;20077;-73
2022/10/31 03:51:16;;;;;;;29.05;18.75;;;;;;;;;;5110365;28;20043;-73
2022/10/31 03:53:53;;;;;;;28.63;18.55;;;;;;;;;;5098022;28;20386;-73
2022/10/31 03:56:30;;;;;;;26.52;18.20;;;;;;;;;;5111799;28;20092;-73
2022/10/31 03:59:02;;;;;;;25.00;17.38;;;;;;;;;;5110438;28;20054;-73
2022/10/31 04:01:29;;;;;;;27.30;19.35;;;;;;;;;;5091983;28;20455;-72
2022/10/31 04:03:55;;;;;;;26.92;18.90;;;;;;;;;;5111323;28;20417;-73
2022/10/31 04:06:22;;;;;;;27.50;17.85;;;;;;;;;;5110923;28;20412;-73
2022/10/31 04:08:50;;;;;;;28.25;18.52;;;;;;;;;;5110552;28;20119;-73
2022/10/31 04:11:18;;;;;;;25.08;17.58;;;;;;;;;;5109546;28;20052;-73
2022/10/31 04:13:44;;;;;;;24.10;18.33;;;;;;;;;;5113077;28;20429;-73
2022/10/31 04:16:14;;;;;;;27.33;19.30;;;;;;;;;;5108513;28;20044;-73
2022/10/31 04:18:40;;;;;;;27.50;18.92;;;;;;;;;;5093436;28;20047;-73
2022/10/31 04:21:07;;;;;;;27.95;20.00;;;;;;;;;;5110194;28;20039;-73
2022/10/31 04:23:34;;;;;;;25.98;18.52;;;;;;;;;;5112786;28;20069;-73
2022/10/31 04:26:00;;;;;;;29.58;19.42;;;;;;;;;;5110689;28;20401;-73
2022/10/31 04:28:26;;;;;;;29.13;19.55;;;;;;;;;;5112141;28;20071;-73
2022/10/31 04:30:52;;;;;;;24.08;18.23;;;;;;;;;;5105228;28;20046;-73
2022/10/31 04:33:18;;;;;;;22.88;17.63;;;;;;;;;;5111030;28;20057;-73
2022/10/31 04:35:44;;;;;;;23.73;17.35;;;;;;;;;;5110814;28;20152;-73
2022/10/31 04:38:10;;;;;;;26.75;18.35;;;;;;;;;;5111508;28;20405;-73
2022/10/31 04:40:36;;;;;;;23.77;17.42;;;;;;;;;;5111749;28;20504;-73
2022/10/31 04:43:03;;;;;;;21.33;17.27;;;;;;;;;;5110057;28;20497;-73
2022/10/31 04:45:29;;;;;;;20.30;16.25;;;;;;;;;;5110886;28;20469;-73
2022/10/31 04:47:55;;;;;;;20.00;15.88;;;;;;;;;;5111046;28;20059;-73
2022/10/31 04:50:21;;;;;;;21.98;16.35;;;;;;;;;;5108569;28;20040;-72
2022/10/31 04:52:47;;;;;;;23.90;16.70;;;;;;;;;;5111526;28;20047;-73
2022/10/31 04:55:14;;;;;;;22.95;16.63;;;;;;;;;;5111193;28;20063;-72
2022/10/31 04:57:47;;;;;;;26.50;18.60;;;;;;;;;;5109665;28;20501;-72
2022/10/31 05:00:14;;;;;;;23.92;17.98;;;;;;;;;;5109925;28;20089;-73
2022/10/31 05:02:54;;;;;;;24.33;17.27;;;;;;;;;;5109884;28;20489;-73
2022/10/31 05:05:22;;;;;;;23.48;17.33;;;;;;;;;;5109118;28;20096;-73
2022/10/31 05:07:48;;;;;;;21.50;16.95;;;;;;;;;;5105219;28;20554;-73
2022/10/31 05:10:16;;;;;;;18.92;15.68;;;;;;;;;;5111243;28;20531;-73
2022/10/31 05:12:49;;;;;;;20.05;15.73;;;;;;;;;;5111504;28;20130;-72
2022/10/31 05:15:16;;;;;;;21.55;16.02;;;;;;;;;;5092230;28;20043;-73
2022/10/31 05:17:42;;;;;;;18.40;15.20;;;;;;;;;;5111453;28;20048;-73
2022/10/31 05:20:08;;;;;;;60.92;14.80;;;;;;;;;;5110523;28;20040;-73
2022/10/31 05:22:34;;;;;;;40.90;15.70;;;;;;;;;;5107491;28;20374;-73
2022/10/31 05:25:00;;;;;;;58.33;13.57;;;;;;;;;;5107579;28;20433;-73
2022/10/31 05:27:26;;;;;;;70.57;13.30;;;;;;;;;;5091650;28;20131;-72
2022/10/31 05:29:52;;;;;;;184.25;16.10;;;;;;;;;;5104491;28;20044;-73
2022/10/31 05:32:18;;;;;;;165.07;15.25;;;;;;;;;;5089815;28;20104;-73
2022/10/31 05:34:44;;;;;;;180.85;12.75;;;;;;;;;;5107927;28;20046;-73
2022/10/31 05:37:10;;;;;;;191.35;15.23;;;;;;;;;;5112683;28;20097;-73
2022/10/31 05:39:36;;;;;;;115.30;11.52;;;;;;;;;;5113806;28;20043;-73
2022/10/31 05:42:03;;;;;;;97.97;11.25;;;;;;;;;;5113687;28;20120;-73
2022/10/31 05:44:29;;;;;;;50.17;9.77;;;;;;;;;;5113527;28;20067;-73
2022/10/31 05:46:55;;;;;;;103.18;10.65;;;;;;;;;;5113481;28;20422;-73
2022/10/31 05:49:22;;;;;;;104.10;11.45;;;;;;;;;;5095333;28;20043;-73
2022/10/31 05:51:48;;;;;;;113.10;10.80;;;;;;;;;;5114918;28;20101;-73
2022/10/31 05:54:14;;;;;;;103.50;10.68;;;;;;;;;;5112215;28;20047;-74
2022/10/31 05:56:40;;;;;;;88.55;10.73;;;;;;;;;;5112009;28;20110;-73
2022/10/31 05:59:06;;;;;;;78.63;10.57;;;;;;;;;;5095018;28;20124;-73
2022/10/31 06:01:32;;;;;;;40.95;9.10;;;;;;;;;;5113715;28;20477;-72
2022/10/31 06:03:58;;;;;;;73.60;11.38;;;;;;;;;;5091434;28;20082;-72
2022/10/31 06:06:24;;;;;;;19.70;9.48;;;;;;;;;;5113424;28;20511;-73
2022/10/31 06:08:50;;;;;;;44.60;10.77;;;;;;;;;;5112309;28;20102;-72
2022/10/31 06:11:16;;;;;;;76.20;12.13;;;;;;;;;;5111930;28;20086;-72
2022/10/31 06:13:42;;;;;;;98.25;13.68;;;;;;;;;;5112930;28;20036;-73
2022/10/31 06:16:08;;;;;;;104.43;13.65;;;;;;;;;;5105454;28;20416;-74
2022/10/31 06:18:34;;;;;;;103.47;15.02;;;;;;;;;;5113684;28;20119;-73
2022/10/31 06:21:00;;;;;;;33.38;13.52;;;;;;;;;;5101331;28;20040;-72
2022/10/31 06:23:26;;;;;;;69.63;13.52;;;;;;;;;;5111760;28;20117;-73
2022/10/31 06:25:52;;;;;;;118.35;14.38;;;;;;;;;;5111539;28;20424;-73
2022/10/31 06:28:18;;;;;;;102.53;14.05;;;;;;;;;;5111878;28;20043;-73
2022/10/31 06:30:44;;;;;;;89.28;14.60;;;;;;;;;;5112739;28;20080;-73
2022/10/31 06:33:10;;;;;;;67.70;13.93;;;;;;;;;;5112037;28;20138;-73
2022/10/31 06:35:36;;;;;;;59.97;13.65;;;;;;;;;;5111841;28;20554;-73
2022/10/31 06:38:02;;;;;;;144.85;16.17;;;;;;;;;;5111410;28;20036;-73
2022/10/31 06:40:28;;;;;;;107.30;15.18;;;;;;;;;;5091691;28;20047;-73
2022/10/31 06:42:58;;;;;;;69.55;14.30;;;;;;;;;;5112763;28;20070;-73
2022/10/31 06:45:24;;;;;;;75.00;15.70;;;;;;;;;;5101221;28;20528;-73
2022/10/31 06:47:51;;;;;;;53.80;14.35;;;;;;;;;;5111056;28;20390;-73
2022/10/31 06:50:17;;;;;;;114.60;15.95;;;;;;;;;;5109267;28;20039;-73
2022/10/31 06:52:43;;;;;;;36.72;14.18;;;;;;;;;;5113386;28;20568;-72
2022/10/31 06:55:09;;;;;;;91.88;14.00;;;;;;;;;;5112966;28;20083;-73
2022/10/31 06:57:35;;;;;;;206.85;14.95;;;;;;;;;;5113780;28;20043;-73
2022/10/31 07:00:01;;;;;;;107.00;12.90;;;;;;;;;;5107763;28;20083;-73
2022/10/31 07:02:27;;;;;;;207.30;14.32;;;;;;;;;;5096789;28;20040;-73
2022/10/31 07:04:53;;;;;;;174.68;13.85;;;;;;;;;;5112481;28;20054;-73
2022/10/31 07:07:21;;;;;;;66.60;14.18;;;;;;;;;;5113484;28;20127;-73
2022/10/31 07:09:47;;;;;;;56.42;13.95;;;;;;;;;;5113408;28;20047;-73
2022/10/31 07:12:13;;;;;;;27.98;13.60;;;;;;;;;;5113527;28;20045;-73
2022/10/31 07:14:39;;;;;;;37.83;13.57;;;;;;;;;;5111685;28;20044;-73
2022/10/31 07:17:05;;;;;;;20.90;12.70;;;;;;;;;;5094495;28;20070;-73
2022/10/31 07:19:31;;;;;;;30.95;12.95;;;;;;;;;;5108981;28;20592;-73
2022/10/31 07:21:57;;;;;;;51.10;14.23;;;;;;;;;;5100996;28;20040;-73
2022/10/31 07:24:23;;;;;;;36.05;13.02;;;;;;;;;;5112423;28;20074;-73
2022/10/31 07:26:50;;;;;;;23.83;14.38;;;;;;;;;;5104582;28;20398;-73
2022/10/31 07:29:16;;;;;;;96.88;15.85;;;;;;;;;;5092741;28;20055;-73
2022/10/31 07:31:43;;;;;;;88.72;14.88;;;;;;;;;;5110837;28;20043;-73
2022/10/31 07:34:09;;;;;;;82.20;14.57;;;;;;;;;;5098723;28;20083;-73
2022/10/31 07:36:35;;;;;;;152.48;14.07;;;;;;;;;;5092875;28;20103;-73
2022/10/31 07:39:02;;;;;;;141.20;15.00;;;;;;;;;;5091447;28;20040;-73
2022/10/31 07:41:28;;;;;;;103.28;14.15;;;;;;;;;;5092422;28;20047;-73
2022/10/31 07:43:54;;;;;;;163.52;16.05;;;;;;;;;;5091450;28;20393;-73
2022/10/31 07:46:20;;;;;;;317.90;16.90;;;;;;;;;;5112116;28;20039;-73
2022/10/31 07:48:46;;;;;;;208.10;15.85;;;;;;;;;;5111680;28;20044;-73
2022/10/31 07:51:12;;;;;;;170.60;15.30;;;;;;;;;;5112223;28;20045;-73
2022/10/31 07:53:38;;;;;;;163.38;14.02;;;;;;;;;;5111270;28;20426;-73
2022/10/31 07:56:04;;;;;;;170.77;14.85;;;;;;;;;;5112862;28;20119;-73
2022/10/31 07:58:30;;;;;;;135.70;13.45;;;;;;;;;;5110031;28;20512;-73
2022/10/31 08:00:58;;;;;;;96.22;12.88;;;;;;;;;;5112211;28;20489;-74
2022/10/31 08:03:24;;;;;;;74.43;13.77;;;;;;;;;;5108642;28;20180;-73
2022/10/31 08:05:50;;;;;;;110.60;15.27;;;;;;;;;;5106823;28;20047;-71
2022/10/31 08:08:16;;;;;;;120.97;17.23;;;;;;;;;;5112395;28;20565;-71
2022/10/31 08:10:42;;;;;;;122.13;18.33;;;;;;;;;;5110811;28;20047;-71
2022/10/31 08:13:10;;;;;;;132.52;17.45;;;;;;;;;;5112085;28;20107;-72
2022/10/31 08:15:38;;;;;;;91.82;18.83;;;;;;;;;;5112281;28;20608;-72
2022/10/31 08:18:05;;;;;;;142.88;20.02;;;;;;;;;;5110755;28;20055;-72
2022/10/31 08:20:31;;;;;;;91.72;21.45;;;;;;;;;;5111760;28;20067;-71
2022/10/31 08:23:01;;;;;;;80.15;21.13;;;;;;;;;;5110694;28;20074;-71
2022/10/31 08:25:28;;;;;;;85.03;22.50;;;;;;;;;;5109233;28;20451;-72
2022/10/31 08:27:54;;;;;;;108.05;24.08;;;;;;;;;;5110985;28;20036;-71
2022/10/31 08:30:21;;;;;;;86.28;25.70;;;;;;;;;;5109961;28;20047;-71
2022/10/31 08:32:48;;;;;;;85.63;26.30;;;;;;;;;;5112080;28;20051;-71
2022/10/31 08:35:14;;;;;;;80.47;24.08;;;;;;;;;;5112277;28;20073;-72
2022/10/31 08:37:40;;;;;;;72.45;26.70;;;;;;;;;;5110138;28;20474;-72
2022/10/31 08:40:07;;;;;;;55.03;23.42;;;;;;;;;;5112102;28;20048;-71
2022/10/31 08:42:33;;;;;;;57.13;26.17;;;;;;;;;;5110569;28;20468;-71
2022/10/31 08:44:59;;;;;;;42.55;24.15;;;;;;;;;;5111127;28;20052;-71
2022/10/31 08:47:25;;;;;;;43.15;25.45;;;;;;;;;;5111442;28;20043;-71
2022/10/31 08:49:51;;;;;;;44.10;28.10;;;;;;;;;;5111852;28;20440;-71
2022/10/31 08:52:17;;;;;;;31.50;25.38;;;;;;;;;;5110081;28;20035;-71
2022/10/31 08:54:43;;;;;;;33.28;26.55;;;;;;;;;;5107933;28;20509;-71
2022/10/31 08:57:09;;;;;;;35.63;27.15;;;;;;;;;;5110179;28;20048;-71
2022/10/31 08:59:35;;;;;;;39.47;29.83;;;;;;;;;;5107419;28;20078;-72
2022/10/31 09:02:01;;;;;;;37.83;29.10;;;;;;;;;;5107913;28;20047;-71
2022/10/31 09:04:27;;;;;;;34.90;26.95;;;;;;;;;;5111447;28;20048;-72
2022/10/31 09:06:53;;;;;;;34.30;26.13;;;;;;;;;;5111683;28;20044;-72
2022/10/31 09:09:19;;;;;;;33.00;26.30;;;;;;;;;;5110009;28;20047;-71
2022/10/31 09:11:45;;;;;;;28.42;24.95;;;;;;;;;;5111718;28;20043;-71
2022/10/31 09:14:11;;;;;;;30.70;25.13;;;;;;;;;;5115833;28;20040;-73
2022/10/31 09:16:37;;;;;;;31.55;24.63;;;;;;;;;;5114763;28;20086;-73
2022/10/31 09:19:03;;;;;;;31.05;25.13;;;;;;;;;;5113870;28;20047;-74
2022/10/31 09:21:29;;;;;;;33.42;26.55;;;;;;;;;;5114624;28;20378;-73
2022/10/31 09:23:55;;;;;;;34.70;26.38;;;;;;;;;;5114840;28;20035;-73
2022/10/31 09:26:21;;;;;;;32.10;25.17;;;;;;;;;;5113191;28;20075;-73
2022/10/31 09:28:47;;;;;;;32.55;24.27;;;;;;;;;;5114429;28;20050;-74
2022/10/31 09:31:13;;;;;;;32.70;24.67;;;;;;;;;;5115381;28;20668;-74
2022/10/31 09:33:39;;;;;;;37.92;23.75;;;;;;;;;;5111833;28;20051;-73
2022/10/31 09:36:05;;;;;;;31.83;24.48;;;;;;;;;;5114867;28;20067;-74
2022/10/31 09:38:31;;;;;;;31.63;23.27;;;;;;;;;;5114349;28;20059;-74
2022/10/31 09:41:20;;;;;;;31.80;24.02;;;;;;;;;;5113545;28;20040;-73
2022/10/31 09:44:05;;;;;;;28.50;23.50;;;;;;;;;;5095538;28;20058;-73
2022/10/31 09:46:35;;;;;;;40.20;24.65;;;;;;;;;;5096298;28;20477;-72
2022/10/31 09:49:20;;;;;;;32.37;24.70;;;;;;;;;;5114194;28;20055;-73
2022/10/31 09:51:49;;;;;;;32.45;24.55;;;;;;;;;;5113812;28;20047;-72
2022/10/31 09:54:17;;;;;;;34.67;25.00;;;;;;;;;;5114202;28;20042;-73
2022/10/31 09:56:44;;;;;;;32.63;24.92;;;;;;;;;;5114737;28;20070;-73
2022/10/31 09:59:25;;;;;;;36.05;27.05;;;;;;;;;;5095306;28;20064;-72
2022/10/31 10:01:59;;;;;;;36.70;27.03;;;;;;;;;;5114595;28;20052;-73
2022/10/31 10:04:44;;;;;;;35.72;26.95;;;;;;;;;;5113327;28;20293;-73
2022/10/31 10:07:22;;;;;;;37.60;27.17;;;;;;;;;;5113761;28;20040;-72
2022/10/31 10:09:48;;;;;;;85.32;30.80;;;;;;;;;;5113626;28;20040;-73
2022/10/31 10:12:24;;;;;;;43.20;28.30;;;;;;;;;;5114534;28;20085;-72
2022/10/31 10:14:50;;;;;;;82.45;28.48;;;;;;;;;;5113863;28;20044;-72
2022/10/31 10:17:36;;;;;;;83.85;28.55;;;;;;;;;;5092978;28;20051;-72
2022/10/31 10:20:23;;;;;;;43.83;27.80;;;;;;;;;;5111681;28;20051;-71
2022/10/31 10:23:01;;;;;;;58.28;29.55;;;;;;;;;;5089213;28;20135;-71
2022/10/31 10:25:40;;;;;;;41.90;28.90;;;;;;;;;;5095966;28;20096;-72
2022/10/31 10:28:14;;;;;;;44.83;28.60;;;;;;;;;;5113187;28;20043;-73
2022/10/31 10:30:45;;;;;;;44.67;30.67;;;;;;;;;;5111238;28;20050;-71
2022/10/31 10:33:11;;;;;;;66.65;28.40;;;;;;;;;;5100129;28;20039;-72
2022/10/31 10:35:41;;;;;;;47.80;28.65;;;;;;;;;;5110292;28;20436;-71
2022/10/31 10:38:16;;;;;;;54.27;29.53;;;;;;;;;;5093800;28;20184;-73
2022/10/31 10:40:43;;;;;;;56.40;28.67;;;;;;;;;;5109914;28;20340;-71
2022/10/31 10:43:24;;;;;;;44.95;28.65;;;;;;;;;;5114432;28;20482;-72
2022/10/31 10:48:45;;;;;;;45.97;25.55;;;;;;;;;;5112431;28;20437;-73
2022/10/31 10:51:19;;;;;;;47.72;26.30;;;;;;;;;;5110922;28;20127;-72
2022/10/31 10:54:01;;;;;;;33.53;24.50;;;;;;;;;;5098024;28;20059;-73
2022/10/31 10:56:46;;;;;;;52.28;26.48;;;;;;;;;;5112853;28;20047;-74
2022/10/31 10:59:16;;;;;;;35.92;23.50;;;;;;;;;;5109769;28;20094;-72
2022/10/31 11:01:42;;;;;;;41.22;23.50;;;;;;;;;;5112898;28;20052;-72
2022/10/31 11:04:28;;;;;;;33.67;21.60;;;;;;;;;;5113769;28;20043;-73
2022/10/31 11:07:12;;;;;;;37.30;22.92;;;;;;;;;;5093439;28;20035;-73
2022/10/31 11:09:38;;;;;;;35.30;22.90;;;;;;;;;;5113664;28;20050;-73
2022/10/31 11:12:09;;;;;;;31.20;22.30;;;;;;;;;;5112351;28;20122;-74
2022/10/31 11:14:47;;;;;;;40.60;23.33;;;;;;;;;;5112126;28;20040;-72
2022/10/31 11:17:28;;;;;;;35.20;22.15;;;;;;;;;;5090053;28;20066;-74
2022/10/31 11:20:12;;;;;;;36.78;21.45;;;;;;;;;;5110458;28;20128;-74
2022/10/31 11:22:38;;;;;;;31.98;21.80;;;;;;;;;;5112796;28;20096;-73
2022/10/31 11:25:19;;;;;;;40.00;22.05;;;;;;;;;;5113644;28;20497;-74
2022/10/31 11:28:05;;;;;;;28.30;20.90;;;;;;;;;;5111918;28;20048;-74
2022/10/31 11:30:36;;;;;;;38.28;20.92;;;;;;;;;;5088677;28;20043;-74
2022/10/31 11:33:02;;;;;;;35.80;19.20;;;;;;;;;;5094003;28;20813;-73
2022/10/31 11:35:29;;;;;;;33.25;21.13;;;;;;;;;;5112837;28;20043;-72
2022/10/31 11:37:58;;;;;;;38.75;21.67;;;;;;;;;;5088881;28;20046;-73
2022/10/31 11:40:27;;;;;;;35.15;21.27;;;;;;;;;;5092820;28;20105;-72
2022/10/31 11:42:55;;;;;;;33.10;20.50;;;;;;;;;;5092592;28;20129;-73
2022/10/31 11:45:24;;;;;;;33.03;23.20;;;;;;;;;;5108604;28;20070;-73
2022/10/31 11:47:51;;;;;;;32.22;22.65;;;;;;;;;;5111464;28;20039;-72
2022/10/31 11:50:21;;;;;;;29.92;22.63;;;;;;;;;;5112515;28;20048;-73
2022/10/31 11:52:48;;;;;;;31.85;21.10;;;;;;;;;;5111751;28;20050;-73
2022/10/31 11:55:13;;;;;;;34.92;21.85;;;;;;;;;;5092288;28;20046;-73
2022/10/31 11:57:44;;;;;;;30.42;21.73;;;;;;;;;;5111865;28;20035;-75
2022/10/31 12:00:24;;;;;;;39.13;20.63;;;;;;;;;;5111301;28;20397;-77
2022/10/31 12:02:51;;;;;;;27.60;20.73;;;;;;;;;;5112599;28;20082;-76
2022/10/31 12:05:28;;;;;;;30.70;21.95;;;;;;;;;;5086133;28;20454;-76
2022/10/31 12:07:55;;;;;;;27.35;21.38;;;;;;;;;;5100871;28;20093;-75
2022/10/31 12:10:24;;;;;;;31.90;22.73;;;;;;;;;;5092296;28;20044;-75
2022/10/31 12:12:53;;;;;;;32.00;22.30;;;;;;;;;;5111875;28;20436;-75
2022/10/31 12:15:27;;;;;;;33.05;21.38;;;;;;;;;;5112710;28;20097;-75
2022/10/31 12:18:12;;;;;;;28.42;21.13;;;;;;;;;;5109523;28;20039;-75
2022/10/31 12:20:47;;;;;;;31.73;21.15;;;;;;;;;;5112342;28;20044;-74
2022/10/31 12:23:19;;;;;;;26.73;19.83;;;;;;;;;;5092056;28;20109;-74
2022/10/31 12:25:56;;;;;;;26.52;19.30;;;;;;;;;;5081481;28;20126;-74
2022/10/31 12:28:45;;;;;;;25.73;19.00;;;;;;;;;;5092838;28;20120;-74
2022/10/31 12:31:17;;;;;;;27.08;18.80;;;;;;;;;;5111334;28;20044;-74
2022/10/31 12:33:51;;;;;;;27.70;17.90;;;;;;;;;;5112492;28;20102;-74
2022/10/31 12:36:25;;;;;;;27.33;17.20;;;;;;;;;;5111815;28;20401;-76
2022/10/31 12:38:57;;;;;;;24.88;17.25;;;;;;;;;;5093759;28;20400;-77
2022/10/31 12:41:29;;;;;;;28.55;17.65;;;;;;;;;;5106835;28;20101;-74
2022/10/31 12:44:01;;;;;;;23.00;17.40;;;;;;;;;;5093176;28;20047;-74
2022/10/31 12:46:27;;;;;;;27.52;17.55;;;;;;;;;;5115147;28;20528;-74
2022/10/31 12:49:12;;;;;;;24.55;17.30;;;;;;;;;;5115854;28;20069;-75
2022/10/31 12:51:48;;;;;;;25.80;16.42;;;;;;;;;;5116261;28;20512;-75
2022/10/31 12:54:22;;;;;;;23.45;15.25;;;;;;;;;;5115998;28;20156;-76
2022/10/31 12:57:00;;;;;;;19.02;12.55;;;;;;;;;;5084434;28;21968;-76
2022/10/31 12:59:36;;;;;;;19.15;10.93;;;;;;;;;;5116126;28;20055;-77
2022/10/31 13:02:02;;;;;;;17.58;10.10;;;;;;;;;;5116247;28;20051;-76
2022/10/31 13:04:46;;;;;;;18.35;10.77;;;;;;;;;;5114677;28;20089;-76
2022/10/31 13:07:16;;;;;;;18.13;10.40;;;;;;;;;;5095637;28;20036;-76
2022/10/31 13:10:02;;;;;;;19.70;9.93;;;;;;;;;;5110943;28;20405;-77
2022/10/31 13:12:30;;;;;;;15.23;9.18;;;;;;;;;;5115229;28;20039;-77
2022/10/31 13:14:58;;;;;;;19.00;9.50;;;;;;;;;;5115688;28;20591;-76
2022/10/31 13:17:28;;;;;;;17.63;9.13;;;;;;;;;;5116101;28;20192;-76
2022/10/31 13:19:56;;;;;;;16.45;9.13;;;;;;;;;;5115285;28;20104;-76
2022/10/31 13:22:24;;;;;;;14.25;9.30;;;;;;;;;;5099128;28;20044;-76
2022/10/31 13:25:03;;;;;;;13.68;8.38;;;;;;;;;;5114302;28;20083;-76
2022/10/31 13:27:50;;;;;;;14.80;8.95;;;;;;;;;;5115929;28;20142;-76
2022/10/31 13:30:20;;;;;;;14.32;8.45;;;;;;;;;;5061959;28;20047;-76
2022/10/31 13:32:59;;;;;;;22.90;7.95;;;;;;;;;;5103729;28;20040;-76
2022/10/31 13:35:25;;;;;;;15.13;7.10;;;;;;;;;;5113201;27;20040;-79
2022/10/31 13:37:55;;;;;;;11.98;7.00;;;;;;;;;;5079071;28;20401;-76
2022/10/31 13:40:47;;;;;;;10.88;6.35;;;;;;;;;;5114378;28;20096;-75
2022/10/31 13:43:32;;;;;;;16.13;5.97;;;;;;;;;;5081251;28;20106;-77
2022/10/31 13:45:58;;;;;;;30.50;6.60;;;;;;;;;;5095721;28;20180;-78
2022/10/31 13:48:56;;;;;;;13.35;4.95;;;;;;;;;;5095432;28;20043;-78
2022/10/31 13:51:28;;;;;;;17.13;4.90;;;;;;;;;;5066504;28;20090;-77
2022/10/31 13:53:54;;;;;;;12.05;4.43;;;;;;;;;;5106665;28;20598;-77
2022/10/31 13:56:34;;;;;;;17.10;5.85;;;;;;;;;;5110886;28;20066;-78
2022/10/31 13:59:09;;;;;;;11.70;4.43;;;;;;;;;;5114542;28;20040;-75
2022/10/31 14:01:35;;;;;;;18.73;5.43;;;;;;;;;;5099116;28;20062;-78
2022/10/31 14:04:04;;;;;;;14.30;4.97;;;;;;;;;;5114457;28;20062;-75
2022/10/31 14:06:37;;;;;;;12.73;4.40;;;;;;;;;;5098061;28;20102;-76
2022/10/31 14:09:03;;;;;;;18.75;5.55;;;;;;;;;;5113098;28;20059;-74
2022/10/31 14:11:30;;;;;;;12.27;4.55;;;;;;;;;;5095577;28;20494;-74
2022/10/31 14:13:58;;;;;;;16.80;4.97;;;;;;;;;;5114573;28;20047;-78
2022/10/31 14:16:25;;;;;;;11.02;5.00;;;;;;;;;;5113514;28;20047;-76
2022/10/31 14:19:12;;;;;;;13.65;5.35;;;;;;;;;;5112967;28;20441;-76
2022/10/31 14:21:39;;;;;;;9.35;4.68;;;;;;;;;;5082960;28;20048;-76
2022/10/31 14:24:34;;;;;;;10.57;4.88;;;;;;;;;;5096660;28;20127;-75
2022/10/31 14:27:03;;;;;;;12.13;4.65;;;;;;;;;;5078477;28;20048;-75
2022/10/31 14:29:31;;;;;;;12.90;5.63;;;;;;;;;;5095232;28;20371;-74
2022/10/31 14:32:10;;;;;;;11.00;4.93;;;;;;;;;;5097987;28;20052;-76
2022/10/31 14:34:39;;;;;;;10.55;5.00;;;;;;;;;;5112856;28;20050;-75